createdAt,value
2023-01-01T00:02:09.694Z,64.70
2023-01-01T00:05:19.495Z,64.33
2023-01-01T00:08:29.246Z,69.70
2023-01-01T00:11:38.935Z,66.83
2023-01-01T00:14:48.638Z,67.57
2023-01-01T00:18:00.141Z,91.37
2023-01-01T00:21:14.474Z,59.80
2023-01-01T00:24:24.195Z,55.47
2023-01-01T00:27:34.345Z,81.67
2023-01-01T00:30:44.211Z,55.90
2023-01-01T00:33:56.248Z,59.30
2023-01-01T00:37:05.963Z,64.03
2023-01-01T00:40:15.719Z,57.97
2023-01-01T00:43:25.447Z,62.47
2023-01-01T00:46:35.203Z,77.20
2023-01-01T00:49:46.160Z,70.40
2023-01-01T04:02:15.959Z,88.10
2023-01-01T04:05:26.999Z,90.73
2023-01-01T04:08:37.774Z,95.17
2023-01-01T04:12:00.110Z,98.03
2023-01-01T04:15:10.634Z,102.47
2023-01-01T04:18:22.022Z,99.63
2023-01-01T04:21:32.050Z,88.73
2023-01-01T04:24:41.977Z,80.83
2023-01-01T04:27:51.998Z,77.23
2023-01-01T04:31:03.016Z,90.17
2023-01-01T04:34:14.888Z,91.50
2023-01-01T04:37:25.876Z,92.17
2023-01-01T04:40:35.797Z,93.27
2023-01-01T04:43:49.833Z,82.60
2023-01-01T04:47:00.308Z,145.30
2023-01-01T04:50:12.291Z,99.53
2023-01-01T04:53:22.510Z,115.67
2023-01-01T04:56:32.604Z,83.73
2023-01-01T04:59:43.114Z,88.80
2023-01-01T05:02:53.149Z,88.40
2023-01-01T05:06:06.419Z,88.07
2023-01-01T05:09:16.519Z,85.87
2023-01-01T05:12:26.922Z,90.93
2023-01-01T05:15:38.221Z,92.43
2023-01-01T05:18:49.147Z,109.13
2023-01-01T05:22:05.332Z,94.53
2023-01-01T05:25:18.830Z,99.80
2023-01-01T05:28:28.820Z,93.23
2023-01-01T05:31:39.734Z,86.87
2023-01-01T05:34:49.773Z,118.37
2023-01-01T05:38:01.451Z,133.27
2023-01-01T05:41:15.837Z,91.73
2023-01-01T05:44:25.900Z,103.90
2023-01-01T05:47:36.202Z,102.27
2023-01-01T05:50:46.382Z,114.23
2023-01-01T05:54:00.967Z,98.97
2023-01-01T05:57:11.089Z,91.47
2023-01-01T06:57:54.712Z,69.03
2023-01-01T07:01:08.909Z,70.80
2023-01-01T07:04:19.271Z,72.40
2023-01-01T07:07:34.135Z,69.17
2023-01-01T07:10:46.162Z,78.03
2023-01-01T07:13:57.852Z,67.97
2023-01-01T07:17:08.880Z,100.33
2023-01-01T07:20:19.028Z,69.93
2023-01-01T07:23:31.098Z,69.93
2023-01-01T07:26:43.351Z,79.07
2023-01-01T07:29:57.345Z,71.87
2023-01-01T07:33:07.730Z,74.93
2023-01-01T07:36:18.064Z,91.17
2023-01-01T07:39:28.624Z,63.57
2023-01-01T07:42:38.815Z,77.03
2023-01-01T07:45:50.428Z,73.20
2023-01-01T07:49:00.922Z,76.20
2023-01-01T07:52:11.159Z,64.40
2023-01-01T07:55:22.319Z,67.57
2023-01-01T07:58:32.899Z,60.80
2023-01-01T08:01:44.478Z,64.07
2023-01-01T08:04:55.436Z,64.73
2023-01-01T08:08:06.010Z,70.83
2023-01-01T08:11:16.745Z,69.63
2023-01-01T08:14:27.073Z,75.63
2023-01-01T08:17:45.925Z,79.97
2023-01-01T08:20:57.708Z,76.83
2023-01-01T08:24:09.005Z,83.97
2023-01-01T08:27:20.038Z,93.77
2023-01-01T08:30:30.981Z,108.63
2023-01-01T08:33:43.015Z,91.20
2023-01-01T08:36:53.423Z,88.50
2023-01-01T08:40:03.488Z,65.90
2023-01-01T08:43:13.853Z,96.33
2023-01-01T08:46:24.183Z,84.50
2023-01-01T08:49:35.753Z,104.40
2023-01-01T08:52:45.795Z,116.17
2023-01-01T08:55:57.908Z,103.47
2023-01-01T08:59:07.929Z,97.33
2023-01-01T09:02:18.347Z,97.13
2023-01-01T09:05:29.763Z,87.70
2023-01-01T09:08:39.901Z,88.07
2023-01-01T09:11:52.031Z,92.30
2023-01-01T09:15:02.048Z,89.67
2023-01-01T09:18:13.149Z,85.67
2023-01-01T09:21:24.503Z,55.53
2023-01-01T09:24:34.505Z,58.67
2023-01-01T09:27:46.478Z,51.63
2023-01-01T09:30:56.484Z,59.90
2023-01-01T09:34:06.727Z,55.63
2023-01-01T09:37:18.107Z,52.37
2023-01-01T09:40:33.850Z,47.57
2023-01-01T09:43:50.768Z,43.70
2023-01-01T09:47:04.086Z,46.03
2023-01-01T09:50:17.632Z,48.47
2023-01-01T09:53:33.568Z,40.40
2023-01-01T09:56:47.112Z,41.27
2023-01-01T09:59:57.787Z,47.87
2023-01-01T10:03:18.598Z,40.63
2023-01-01T10:06:31.402Z,36.27
2023-01-01T10:09:51.891Z,49.70
2023-01-01T10:13:09.112Z,39.23
2023-01-01T10:16:30.521Z,41.97
2023-01-01T10:19:44.380Z,49.77
2023-01-01T10:22:58.777Z,33.47
2023-01-01T10:26:14.699Z,33.40
2023-01-01T10:29:29.752Z,37.07
2023-01-01T10:32:41.217Z,36.83
2023-01-01T10:35:56.945Z,38.67
2023-01-01T14:50:33.112Z,40.83
2023-01-01T14:53:46.320Z,39.50
2023-01-01T14:56:56.370Z,38.10
2023-01-01T15:00:21.950Z,41.93
2023-01-01T15:03:31.885Z,41.53
2023-01-01T15:06:42.364Z,41.17
2023-01-01T15:09:56.582Z,40.73
2023-01-01T15:13:08.319Z,43.20
2023-01-01T15:16:20.003Z,48.27
2023-01-01T15:19:29.958Z,49.90
2023-01-01T15:22:40.164Z,56.83
2023-01-01T15:25:51.563Z,87.20
2023-01-01T15:29:02.447Z,93.07
2023-01-01T15:32:16.264Z,99.63
2023-01-01T15:35:32.043Z,99.93
2023-01-01T15:38:48.357Z,89.60
2023-01-01T15:41:59.881Z,98.43
2023-01-01T15:45:17.089Z,86.07
2023-01-01T15:48:33.953Z,102.47
2023-01-01T15:51:44.181Z,92.13
2023-01-01T15:54:54.867Z,97.37
2023-01-01T15:58:06.228Z,102.83
2023-01-01T16:01:21.996Z,102.87
2023-01-01T16:04:32.224Z,105.20
2023-01-01T16:07:42.341Z,104.50
2023-01-01T16:10:53.140Z,108.67
2023-01-01T16:14:04.487Z,125.17
2023-01-01T16:17:17.540Z,128.67
2023-01-01T16:20:27.788Z,133.07
2023-01-01T16:23:37.832Z,115.20
2023-01-01T16:26:48.732Z,132.53
2023-01-01T16:30:01.754Z,119.23
2023-01-01T16:33:16.492Z,143.87
2023-01-01T16:36:29.170Z,136.53
2023-01-01T16:39:39.172Z,141.90
2023-01-01T16:42:49.222Z,127.07
2023-01-01T16:46:02.414Z,130.40
2023-01-01T16:49:13.932Z,117.63
2023-01-01T16:52:24.071Z,123.40
2023-01-01T16:55:34.002Z,115.20
2023-01-01T16:58:49.669Z,125.87
2023-01-01T17:02:02.065Z,135.60
2023-01-01T17:05:12.604Z,102.63
2023-01-01T17:08:22.757Z,119.03
2023-01-01T17:11:33.793Z,56.27
2023-01-01T17:14:43.806Z,58.80
2023-01-01T17:17:55.103Z,46.93
2023-01-01T17:21:06.250Z,75.67
2023-01-01T17:24:17.168Z,42.07
2023-01-01T17:27:27.128Z,36.17
2023-01-01T17:30:37.141Z,42.13
2023-01-01T17:33:48.742Z,49.17
2023-01-01T17:36:58.731Z,50.70
2023-01-01T17:40:09.608Z,43.90
2023-01-01T17:43:19.662Z,48.07
2023-01-01T17:46:31.212Z,49.33
2023-01-01T17:49:43.576Z,50.60
2023-01-01T17:52:53.942Z,58.87
2023-01-01T17:56:04.127Z,60.70
2023-01-01T17:59:14.179Z,52.33
2023-01-01T18:02:24.382Z,52.57
2023-01-01T18:05:35.915Z,51.43
2023-01-01T18:08:46.254Z,50.07
2023-01-01T18:11:56.611Z,53.07
2023-01-01T18:15:07.245Z,58.00
2023-01-01T18:18:17.758Z,91.20
2023-01-01T18:21:29.847Z,105.07
2023-01-01T18:24:40.116Z,84.83
2023-01-01T18:27:57.179Z,126.50
2023-01-01T18:31:09.418Z,150.97
2023-01-01T18:34:19.739Z,118.53
2023-01-01T18:37:31.518Z,110.10
2023-01-01T18:40:50.137Z,109.37
2023-01-01T18:44:01.567Z,86.83
2023-01-01T18:47:15.593Z,84.57
2023-01-01T18:50:29.773Z,95.17
2023-01-01T18:53:41.087Z,74.40
2023-01-01T18:56:52.235Z,79.70
2023-01-01T19:00:16.784Z,77.50
2023-01-01T19:03:29.144Z,114.30
2023-01-01T19:06:39.784Z,153.97
2023-01-01T19:09:57.266Z,190.93
2023-01-01T19:13:16.809Z,122.13
2023-01-01T19:16:29.025Z,197.07
2023-01-01T19:19:41.509Z,999.90
2023-01-01T19:22:51.706Z,546.40
2023-01-01T19:26:05.077Z,290.97
2023-01-01T19:29:18.540Z,999.90
2023-01-01T19:32:28.521Z,349.13
2023-01-01T19:35:38.638Z,333.00
2023-01-01T19:38:48.744Z,304.17
2023-01-01T19:42:04.052Z,999.90
2023-01-01T19:45:14.074Z,315.67
2023-01-01T19:48:24.312Z,999.90
2023-01-01T19:51:34.587Z,376.77
2023-01-01T19:54:45.697Z,999.90
2023-01-01T19:57:57.109Z,536.50
2023-01-01T20:01:07.138Z,999.90
2023-01-01T20:04:17.213Z,807.57
2023-01-01T20:07:27.351Z,785.67
2023-01-01T20:10:37.410Z,372.73
2023-01-01T20:13:49.321Z,97.87
2023-01-01T20:16:59.398Z,94.10
2023-01-01T20:20:10.653Z,89.73
2023-01-01T20:23:20.723Z,27.53
2023-01-01T20:26:30.985Z,32.53
2023-01-01T20:29:42.673Z,27.00
2023-01-01T20:32:53.388Z,39.90
2023-01-01T20:36:14.397Z,50.83
2023-01-01T20:39:24.583Z,54.83
2023-01-01T20:42:34.725Z,29.70
